LAX weather

Los Angeles International Airport
Los Angeles, California, United States

Public forecast

Using degrees Fahrenheit for public forecast. Weather courtesy of forecast.io.

METAR (pilot weather report)

Retrieved 2017/05/30 09:53 UTC (51 minutes ago):

KLAX 300953Z 05003KT 9SM OVC011 16/14 A2990 RMK AO2 SLP123 T01610139

TAF (pilot weather forecast)

Retrieved 2017/05/30 06:48 UTC (4 hours ago):

TAF KLAX 300545Z 3006/3112 VRB03KT P6SM OVC010 FM302100 25012KT P6SM BKN018 FM310300 25006KT 4SM BR OVC012 FM310800 VRB03KT P6SM OVC010